Time;durP1;ratioP1;P1;durP2;ratioP2;P2;SDS_P1;SDS_P2;PMS_P1;PMS_P2;Temp;Humidity;BMP_temperature;BMP_pressure;BME280_temperature;BME280_humidity;BME280_pressure;Samples;Min_cycle;Max_cycle;Signal;HPM_P1;HPM_P2
2022/06/18 00:02:18;;;;;;;;;;;25.90;56.30;;;;;;5049973;28;19928;-64
2022/06/18 00:04:44;;;;;;;;;;;25.90;56.10;;;;;;5049907;28;20037;-62
2022/06/18 00:07:12;;;;;;;;;;;25.90;56.40;;;;;;5049778;28;19917;-62
2022/06/18 00:09:41;;;;;;;;;;;25.80;56.30;;;;;;5043745;28;19984;-63
2022/06/18 00:14:59;;;;;;;;;;;25.80;56.50;;;;;;5049655;28;19933;-62
2022/06/18 00:17:25;;;;;;;;;;;25.70;56.50;;;;;;5049973;28;19912;-62
2022/06/18 00:19:50;;;;;;;;;;;25.70;56.70;;;;;;5050234;28;20027;-61
2022/06/18 00:22:17;;;;;;;;;;;25.70;56.60;;;;;;5049454;28;19959;-63
2022/06/18 00:24:43;;;;;;;;;;;25.70;56.70;;;;;;5050190;28;19920;-62
2022/06/18 00:27:13;;;;;;;;;;;25.70;57.10;;;;;;5049810;28;19921;-62
2022/06/18 00:29:39;;;;;;;;;;;25.70;57.20;;;;;;5049810;28;19970;-62
2022/06/18 00:32:05;;;;;;;;;;;25.60;57.20;;;;;;5050530;28;19940;-62
2022/06/18 00:34:30;;;;;;;;;;;25.60;57.80;;;;;;5049463;28;19909;-62
2022/06/18 00:36:57;;;;;;;;;;;25.60;57.80;;;;;;5049877;28;19913;-62
2022/06/18 00:39:22;;;;;;;;;;;25.60;57.70;;;;;;5049598;28;19908;-64
2022/06/18 00:41:51;;;;;;;;;;;25.50;57.70;;;;;;5049502;28;19920;-62
2022/06/18 00:44:31;;;;;;;;;;;25.60;57.60;;;;;;5049893;28;19913;-63
2022/06/18 00:47:06;;;;;;;;;;;25.50;57.50;;;;;;5046874;28;19921;-63
2022/06/18 00:49:37;;;;;;;;;;;25.50;57.90;;;;;;5048356;28;19913;-62
2022/06/18 00:52:14;;;;;;;;;;;25.40;57.90;;;;;;5048797;28;19913;-63
2022/06/18 00:55:06;;;;;;;;;;;25.40;58.00;;;;;;5049813;28;19916;-62
2022/06/18 00:57:46;;;;;;;;;;;25.40;57.90;;;;;;4983695;28;19921;-63
2022/06/18 01:00:20;;;;;;;;;;;25.40;58.10;;;;;;4987786;28;19910;-62
2022/06/18 01:05:35;;;;;;;;;;;25.30;58.50;;;;;;4991573;28;20476;-62
2022/06/18 01:08:03;;;;;;;;;;;25.30;58.70;;;;;;4992191;28;19922;-63
2022/06/18 01:10:34;;;;;;;;;;;25.30;58.30;;;;;;4991302;28;20028;-63
2022/06/18 01:13:01;;;;;;;;;;;25.30;58.70;;;;;;4991121;28;19941;-62
2022/06/18 01:15:27;;;;;;;;;;;25.30;59.00;;;;;;4990862;28;19979;-63
2022/06/18 01:17:53;;;;;;;;;;;25.30;58.50;;;;;;4991282;28;20548;-62
2022/06/18 01:20:19;;;;;;;;;;;25.30;59.00;;;;;;4990921;28;19917;-63
2022/06/18 01:22:54;;;;;;;;;;;25.30;58.60;;;;;;4991744;28;19921;-63
2022/06/18 01:25:21;;;;;;;;;;;25.20;58.90;;;;;;4990571;28;19916;-62
2022/06/18 01:27:47;;;;;;;;;;;25.20;59.00;;;;;;4990385;28;20126;-64
2022/06/18 01:30:14;;;;;;;;;;;25.20;59.70;;;;;;4991287;28;20396;-64
2022/06/18 01:32:43;;;;;;;;;;;25.20;59.10;;;;;;4985318;28;20008;-63
2022/06/18 01:35:09;;;;;;;;;;;25.20;59.00;;;;;;5026326;28;19909;-62
2022/06/18 01:37:35;;;;;;;;;;;25.10;59.00;;;;;;5032619;28;19915;-63
2022/06/18 01:40:01;;;;;;;;;;;25.10;59.20;;;;;;5032135;28;19953;-63
2022/06/18 01:42:36;;;;;;;;;;;25.10;59.10;;;;;;5032327;28;19910;-63
2022/06/18 01:45:08;;;;;;;;;;;25.10;59.80;;;;;;5032166;28;19940;-63
2022/06/18 01:47:36;;;;;;;;;;;25.00;59.40;;;;;;5032390;28;19925;-62
2022/06/18 01:50:06;;;;;;;;;;;25.00;59.30;;;;;;5032968;28;20004;-63
2022/06/18 01:52:35;;;;;;;;;;;25.00;59.40;;;;;;5031923;28;19916;-63
2022/06/18 01:55:06;;;;;;;;;;;25.00;59.40;;;;;;5032086;28;19913;-63
2022/06/18 01:57:33;;;;;;;;;;;25.00;59.70;;;;;;5032018;28;19913;-62
2022/06/18 02:00:04;;;;;;;;;;;25.00;59.70;;;;;;5032290;28;19917;-63
2022/06/18 02:02:30;;;;;;;;;;;24.90;59.60;;;;;;5040349;28;19976;-63
2022/06/18 02:04:55;;;;;;;;;;;24.90;59.90;;;;;;5053125;28;19955;-64
2022/06/18 02:07:21;;;;;;;;;;;24.90;60.00;;;;;;5051576;28;19921;-63
2022/06/18 02:10:05;;;;;;;;;;;24.90;60.80;;;;;;5051966;28;20375;-62
2022/06/18 02:12:32;;;;;;;;;;;24.90;60.20;;;;;;5051076;28;19913;-64
2022/06/18 02:14:59;;;;;;;;;;;24.90;60.30;;;;;;5052116;28;20402;-63
2022/06/18 02:17:26;;;;;;;;;;;24.90;60.30;;;;;;5051523;28;20382;-62
2022/06/18 02:19:53;;;;;;;;;;;24.80;60.30;;;;;;5052690;28;19955;-63
2022/06/18 02:22:20;;;;;;;;;;;24.80;60.70;;;;;;5051380;28;19916;-63
2022/06/18 02:24:46;;;;;;;;;;;24.80;60.90;;;;;;5051212;28;20371;-61
2022/06/18 02:27:13;;;;;;;;;;;24.80;60.80;;;;;;5051534;28;19917;-61
2022/06/18 02:29:38;;;;;;;;;;;24.70;60.80;;;;;;5051473;28;19955;-62
2022/06/18 02:32:06;;;;;;;;;;;24.70;61.00;;;;;;5052139;28;19913;-63
2022/06/18 02:34:31;;;;;;;;;;;24.70;60.90;;;;;;5051464;28;19909;-64
2022/06/18 02:36:59;;;;;;;;;;;24.70;61.20;;;;;;5051250;28;20371;-63
2022/06/18 02:39:24;;;;;;;;;;;24.70;61.20;;;;;;5050997;28;20516;-62
2022/06/18 02:41:54;;;;;;;;;;;24.60;61.20;;;;;;5051183;28;19917;-63
2022/06/18 02:44:19;;;;;;;;;;;24.60;61.80;;;;;;5051370;28;20280;-63
2022/06/18 02:46:45;;;;;;;;;;;24.60;61.90;;;;;;5051864;28;19931;-63
2022/06/18 02:49:12;;;;;;;;;;;24.60;61.70;;;;;;5051148;28;19999;-62
2022/06/18 02:51:38;;;;;;;;;;;24.60;61.90;;;;;;5050987;28;19938;-63
2022/06/18 02:54:04;;;;;;;;;;;24.50;62.20;;;;;;5051120;28;19913;-63
2022/06/18 02:56:29;;;;;;;;;;;24.50;62.20;;;;;;5051054;28;19995;-63
2022/06/18 02:58:55;;;;;;;;;;;24.50;62.20;;;;;;5033927;28;19917;-63
2022/06/18 03:01:22;;;;;;;;;;;24.40;62.30;;;;;;5050119;28;20036;-62
2022/06/18 03:04:06;;;;;;;;;;;24.40;62.10;;;;;;5050717;28;19921;-62
2022/06/18 03:06:33;;;;;;;;;;;24.40;62.10;;;;;;5051945;28;19959;-62
2022/06/18 03:08:58;;;;;;;;;;;24.40;62.10;;;;;;5036529;28;20005;-63
2022/06/18 03:14:10;;;;;;;;;;;24.30;62.10;;;;;;5054973;28;19919;-62
2022/06/18 03:16:35;;;;;;;;;;;24.30;61.90;;;;;;5050087;28;20261;-63
2022/06/18 03:19:01;;;;;;;;;;;24.30;62.10;;;;;;5050477;28;19919;-63
2022/06/18 03:21:27;;;;;;;;;;;24.30;62.10;;;;;;5050665;28;19964;-64
2022/06/18 03:23:53;;;;;;;;;;;24.30;62.60;;;;;;5050051;28;20389;-63
2022/06/18 03:26:19;;;;;;;;;;;24.30;62.30;;;;;;5050464;28;19916;-64
2022/06/18 03:28:45;;;;;;;;;;;24.20;62.30;;;;;;5050900;28;19966;-62
2022/06/18 03:31:11;;;;;;;;;;;24.20;62.10;;;;;;5050340;28;20384;-62
2022/06/18 03:33:36;;;;;;;;;;;24.20;62.80;;;;;;5050588;28;19917;-64
2022/06/18 03:36:03;;;;;;;;;;;24.20;63.10;;;;;;5049994;28;19924;-63
2022/06/18 03:38:29;;;;;;;;;;;24.20;62.90;;;;;;5049904;28;20383;-63
2022/06/18 03:40:55;;;;;;;;;;;24.20;63.00;;;;;;5051003;28;20009;-63
2022/06/18 03:43:21;;;;;;;;;;;24.20;63.30;;;;;;5049937;28;19913;-62
2022/06/18 03:45:52;;;;;;;;;;;24.20;63.30;;;;;;5050153;28;19952;-62
2022/06/18 03:48:26;;;;;;;;;;;24.20;63.90;;;;;;5050079;28;19924;-62
2022/06/18 03:50:51;;;;;;;;;;;24.20;63.40;;;;;;5050039;28;19916;-63
2022/06/18 03:53:17;;;;;;;;;;;24.20;63.40;;;;;;5050428;28;19912;-61
2022/06/18 03:55:43;;;;;;;;;;;24.20;64.00;;;;;;5050562;28;20008;-62
2022/06/18 03:58:08;;;;;;;;;;;24.20;63.80;;;;;;5049047;28;19909;-63
2022/06/18 04:00:34;;;;;;;;;;;24.20;64.20;;;;;;5049958;28;19987;-63
2022/06/18 04:05:44;;;;;;;;;;;24.20;64.70;;;;;;5029791;28;19919;-63
2022/06/18 04:08:14;;;;;;;;;;;24.10;65.30;;;;;;5031121;28;19925;-63
2022/06/18 04:10:39;;;;;;;;;;;24.10;64.90;;;;;;5029886;28;20009;-61
2022/06/18 04:13:05;;;;;;;;;;;24.10;65.00;;;;;;5029285;28;20008;-62
2022/06/18 04:15:30;;;;;;;;;;;24.10;64.90;;;;;;5029792;28;19959;-62
2022/06/18 04:17:56;;;;;;;;;;;24.10;64.90;;;;;;5029954;28;20470;-62
2022/06/18 04:20:24;;;;;;;;;;;24.10;64.70;;;;;;5029764;28;19940;-63
2022/06/18 04:22:50;;;;;;;;;;;24.10;65.00;;;;;;5030489;28;19961;-63
2022/06/18 04:25:16;;;;;;;;;;;24.00;65.00;;;;;;5033954;28;19951;-61
2022/06/18 04:27:41;;;;;;;;;;;24.10;65.80;;;;;;5028679;28;19925;-63
2022/06/18 04:30:07;;;;;;;;;;;24.00;65.60;;;;;;5029705;28;19917;-63
2022/06/18 04:32:35;;;;;;;;;;;24.00;65.80;;;;;;5028997;28;20287;-63
2022/06/18 04:35:01;;;;;;;;;;;24.00;65.60;;;;;;5031074;28;19962;-64
2022/06/18 04:37:27;;;;;;;;;;;24.00;65.80;;;;;;5033264;28;20039;-62
2022/06/18 04:39:52;;;;;;;;;;;24.00;66.40;;;;;;5036193;28;20295;-63
2022/06/18 04:42:18;;;;;;;;;;;24.00;66.60;;;;;;5032782;28;19916;-64
2022/06/18 04:44:43;;;;;;;;;;;24.00;66.60;;;;;;5033118;28;19913;-63
2022/06/18 04:47:09;;;;;;;;;;;24.10;66.90;;;;;;5035195;28;20046;-64
2022/06/18 04:49:34;;;;;;;;;;;24.00;66.90;;;;;;5036137;28;19913;-64
2022/06/18 04:52:00;;;;;;;;;;;24.10;67.10;;;;;;5033020;28;19913;-64
2022/06/18 04:54:25;;;;;;;;;;;24.10;67.40;;;;;;5032729;28;19909;-64
2022/06/18 04:56:51;;;;;;;;;;;24.10;67.50;;;;;;5032500;28;19920;-63
2022/06/18 04:59:16;;;;;;;;;;;24.10;67.40;;;;;;5033482;28;19909;-64
2022/06/18 05:01:43;;;;;;;;;;;24.10;67.60;;;;;;5035469;28;20092;-63
2022/06/18 05:04:08;;;;;;;;;;;24.10;68.10;;;;;;5052358;28;19920;-64
2022/06/18 05:06:34;;;;;;;;;;;24.20;67.60;;;;;;5052743;28;19974;-62
2022/06/18 05:08:59;;;;;;;;;;;24.20;67.40;;;;;;5052601;28;19970;-63
2022/06/18 05:11:25;;;;;;;;;;;24.30;67.60;;;;;;5051878;28;20470;-62
2022/06/18 05:13:50;;;;;;;;;;;24.30;67.90;;;;;;5053121;28;19955;-62
2022/06/18 05:16:16;;;;;;;;;;;24.30;68.10;;;;;;5052865;28;20299;-63
2022/06/18 05:18:46;;;;;;;;;;;24.30;68.50;;;;;;5052044;28;19923;-63
2022/06/18 05:21:11;;;;;;;;;;;24.40;68.00;;;;;;5034156;28;19967;-62
2022/06/18 05:23:37;;;;;;;;;;;24.40;68.20;;;;;;5052384;28;20342;-61
2022/06/18 05:26:02;;;;;;;;;;;24.50;68.10;;;;;;5052975;28;20345;-63
2022/06/18 05:28:28;;;;;;;;;;;24.50;67.90;;;;;;5052089;28;19997;-62
2022/06/18 05:30:53;;;;;;;;;;;24.60;68.10;;;;;;5052346;28;19913;-62
2022/06/18 05:33:19;;;;;;;;;;;24.60;68.10;;;;;;5051794;28;19913;-63
2022/06/18 05:35:44;;;;;;;;;;;24.60;68.20;;;;;;5052145;28;19920;-63
2022/06/18 05:38:14;;;;;;;;;;;24.60;68.20;;;;;;5053273;28;19909;-62
2022/06/18 05:40:40;;;;;;;;;;;24.70;68.10;;;;;;5051854;28;19917;-63
2022/06/18 05:43:06;;;;;;;;;;;24.70;68.10;;;;;;5052051;28;19960;-63
2022/06/18 05:45:31;;;;;;;;;;;24.80;67.90;;;;;;5051627;28;19913;-63
2022/06/18 05:47:57;;;;;;;;;;;24.90;68.00;;;;;;5051160;28;19921;-64
2022/06/18 05:50:22;;;;;;;;;;;24.90;68.10;;;;;;5051881;28;19916;-63
2022/06/18 05:52:48;;;;;;;;;;;25.00;68.10;;;;;;5052607;28;20097;-63
2022/06/18 05:55:14;;;;;;;;;;;25.00;68.10;;;;;;5033450;28;19919;-62
2022/06/18 05:57:47;;;;;;;;;;;25.10;67.90;;;;;;5051761;28;20314;-63
2022/06/18 06:00:14;;;;;;;;;;;25.10;68.10;;;;;;5051618;28;19917;-63
2022/06/18 06:02:40;;;;;;;;;;;25.10;68.10;;;;;;5056580;28;19954;-64
2022/06/18 06:05:05;;;;;;;;;;;25.20;68.00;;;;;;5052435;28;20019;-64
2022/06/18 06:07:31;;;;;;;;;;;25.20;67.80;;;;;;5051233;28;19920;-63
2022/06/18 06:12:41;;;;;;;;;;;25.30;67.80;;;;;;5051562;28;20402;-64
2022/06/18 06:15:06;;;;;;;;;;;25.30;67.80;;;;;;5051271;28;20003;-64
2022/06/18 06:17:32;;;;;;;;;;;25.30;67.70;;;;;;5051317;28;19985;-64
2022/06/18 06:20:21;;;;;;;;;;;25.40;67.70;;;;;;5052236;28;19960;-65
2022/06/18 06:22:47;;;;;;;;;;;25.50;67.70;;;;;;5040266;28;20016;-64
2022/06/18 06:25:12;;;;;;;;;;;25.50;67.60;;;;;;5051137;28;20505;-64
2022/06/18 06:27:37;;;;;;;;;;;25.60;67.70;;;;;;5051200;28;19920;-65
2022/06/18 06:30:03;;;;;;;;;;;25.60;67.70;;;;;;5051174;28;20808;-64
2022/06/18 06:32:29;;;;;;;;;;;25.70;67.60;;;;;;5051795;28;19913;-64
2022/06/18 06:34:54;;;;;;;;;;;25.70;67.60;;;;;;5052232;28;20279;-63
2022/06/18 06:37:20;;;;;;;;;;;25.70;67.40;;;;;;5050993;28;20003;-63
2022/06/18 06:39:45;;;;;;;;;;;25.80;67.30;;;;;;5052106;28;20287;-63
2022/06/18 06:42:11;;;;;;;;;;;25.80;67.30;;;;;;5051639;28;19966;-62
2022/06/18 06:44:36;;;;;;;;;;;25.80;67.20;;;;;;5051112;28;20303;-64
2022/06/18 06:47:02;;;;;;;;;;;25.90;67.00;;;;;;5052171;28;19916;-64
2022/06/18 06:49:27;;;;;;;;;;;25.90;66.70;;;;;;5050881;28;19921;-63
2022/06/18 06:51:54;;;;;;;;;;;26.00;66.70;;;;;;5051396;28;19917;-64
2022/06/18 06:54:19;;;;;;;;;;;26.00;66.50;;;;;;5051363;28;19917;-63
2022/06/18 06:59:29;;;;;;;;;;;26.10;66.50;;;;;;5049921;28;20055;-63
2022/06/18 07:01:55;;;;;;;;;;;26.20;66.60;;;;;;5051771;28;20012;-64
2022/06/18 07:04:21;;;;;;;;;;;26.30;66.80;;;;;;5051018;28;20033;-63
2022/06/18 07:06:46;;;;;;;;;;;26.30;66.60;;;;;;5049892;28;19924;-64
2022/06/18 07:09:11;;;;;;;;;;;26.40;66.60;;;;;;5044694;28;20391;-64
2022/06/18 07:11:38;;;;;;;;;;;26.50;66.70;;;;;;5050555;28;19920;-66
2022/06/18 07:14:04;;;;;;;;;;;26.60;66.90;;;;;;5051880;28;19913;-64
2022/06/18 07:16:29;;;;;;;;;;;26.60;66.60;;;;;;5053231;28;20084;-62
2022/06/18 07:18:56;;;;;;;;;;;26.60;66.60;;;;;;5050051;28;19999;-61
2022/06/18 07:21:22;;;;;;;;;;;26.70;66.60;;;;;;5049619;28;19913;-63
2022/06/18 07:23:48;;;;;;;;;;;26.80;66.70;;;;;;5046510;28;19936;-58
2022/06/18 07:26:15;;;;;;;;;;;26.80;66.60;;;;;;5055058;28;19913;-59
2022/06/18 07:28:42;;;;;;;;;;;26.80;66.30;;;;;;5045084;28;19917;-60
2022/06/18 07:31:10;;;;;;;;;;;26.80;66.40;;;;;;5046765;28;19912;-58
2022/06/18 07:33:35;;;;;;;;;;;26.90;66.50;;;;;;5050405;28;19924;-58
2022/06/18 07:36:01;;;;;;;;;;;26.90;66.40;;;;;;5049702;28;19913;-58
2022/06/18 07:38:26;;;;;;;;;;;27.00;66.10;;;;;;5052710;28;19979;-59
2022/06/18 07:40:55;;;;;;;;;;;26.90;66.20;;;;;;5055605;28;19920;-57
2022/06/18 07:43:28;;;;;;;;;;;27.00;66.20;;;;;;5045185;28;19913;-59
2022/06/18 07:45:54;;;;;;;;;;;27.00;66.00;;;;;;5051755;28;19932;-58
2022/06/18 07:48:19;;;;;;;;;;;27.10;66.70;;;;;;5051774;28;19921;-59
2022/06/18 07:50:46;;;;;;;;;;;27.10;66.00;;;;;;5046984;28;19920;-59
2022/06/18 07:53:16;;;;;;;;;;;27.20;66.00;;;;;;5046645;28;19913;-58
2022/06/18 07:55:42;;;;;;;;;;;27.20;66.00;;;;;;5047428;28;19935;-59
2022/06/18 07:58:07;;;;;;;;;;;27.20;65.60;;;;;;5050121;28;20286;-59
2022/06/18 08:00:33;;;;;;;;;;;27.30;65.70;;;;;;5047661;28;19913;-59
2022/06/18 08:02:59;;;;;;;;;;;27.30;65.70;;;;;;5047448;28;19979;-60
2022/06/18 08:05:27;;;;;;;;;;;27.40;65.80;;;;;;5049191;28;20410;-58
2022/06/18 08:07:53;;;;;;;;;;;27.50;65.80;;;;;;5050159;28;19925;-58
2022/06/18 08:10:18;;;;;;;;;;;27.50;65.60;;;;;;5047999;28;19917;-59
2022/06/18 08:12:44;;;;;;;;;;;27.60;65.80;;;;;;5046942;28;19996;-60
2022/06/18 08:15:10;;;;;;;;;;;27.70;65.60;;;;;;5049010;28;19912;-59
2022/06/18 08:17:36;;;;;;;;;;;27.70;65.60;;;;;;5048837;28;19949;-57
2022/06/18 08:20:03;;;;;;;;;;;27.80;65.60;;;;;;5032141;28;19912;-59
2022/06/18 08:22:29;;;;;;;;;;;27.80;65.60;;;;;;5047681;28;19917;-58
2022/06/18 08:24:54;;;;;;;;;;;27.80;65.60;;;;;;5048710;28;19920;-57
2022/06/18 08:27:20;;;;;;;;;;;27.90;65.40;;;;;;5046188;28;19921;-57
2022/06/18 08:29:46;;;;;;;;;;;27.90;65.40;;;;;;5049086;28;20012;-58
2022/06/18 08:32:12;;;;;;;;;;;27.90;65.10;;;;;;5048893;28;19999;-59
2022/06/18 08:34:37;;;;;;;;;;;28.00;65.20;;;;;;5048909;28;19913;-58
2022/06/18 08:37:04;;;;;;;;;;;28.00;65.00;;;;;;5046940;28;19940;-59
2022/06/18 08:39:30;;;;;;;;;;;28.10;65.20;;;;;;5047121;28;19955;-58
2022/06/18 08:41:59;;;;;;;;;;;28.20;65.30;;;;;;5047228;28;19921;-57
2022/06/18 08:44:43;;;;;;;;;;;28.20;65.20;;;;;;5047391;28;20092;-61
2022/06/18 08:47:27;;;;;;;;;;;28.30;65.00;;;;;;5048200;28;19920;-59
2022/06/18 08:50:01;;;;;;;;;;;28.40;65.30;;;;;;5047300;28;19917;-59
2022/06/18 08:52:37;;;;;;;;;;;28.50;64.90;;;;;;5045953;28;19913;-58
2022/06/18 08:55:21;;;;;;;;;;;28.60;64.90;;;;;;5046643;28;19921;-61
2022/06/18 08:57:58;;;;;;;;;;;28.60;64.70;;;;;;5047248;28;19913;-61
2022/06/18 09:00:24;;;;;;;;;;;28.70;64.50;;;;;;5046339;28;19920;-59
2022/06/18 09:02:53;;;;;;;;;;;28.70;64.30;;;;;;5046597;28;19920;-61
2022/06/18 09:05:19;;;;;;;;;;;28.80;63.70;;;;;;5045643;28;19917;-59
2022/06/18 09:07:53;;;;;;;;;;;28.90;63.50;;;;;;5029632;28;19927;-62
2022/06/18 09:10:38;;;;;;;;;;;29.10;63.20;;;;;;5045770;28;19920;-57
2022/06/18 09:13:06;;;;;;;;;;;29.10;63.10;;;;;;5045898;28;19928;-59
2022/06/18 09:15:41;;;;;;;;;;;29.20;63.20;;;;;;5047691;28;19913;-59
2022/06/18 09:18:11;;;;;;;;;;;29.30;63.00;;;;;;5047111;28;20326;-61
2022/06/18 09:20:43;;;;;;;;;;;29.40;62.60;;;;;;5049911;28;19940;-61
2022/06/18 09:23:13;;;;;;;;;;;29.50;62.30;;;;;;5050374;28;19966;-60
2022/06/18 09:25:41;;;;;;;;;;;29.60;62.70;;;;;;5052406;28;19919;-53
2022/06/18 09:28:08;;;;;;;;;;;29.60;63.30;;;;;;5050037;28;19925;-57
2022/06/18 09:30:50;;;;;;;;;;;29.60;62.50;;;;;;5050260;28;19951;-58
2022/06/18 09:33:15;;;;;;;;;;;29.60;61.90;;;;;;5050388;28;19916;-59
2022/06/18 09:35:44;;;;;;;;;;;29.60;61.30;;;;;;5053132;28;20011;-59
2022/06/18 09:38:12;;;;;;;;;;;29.70;61.10;;;;;;5051999;28;19919;-60
2022/06/18 09:40:40;;;;;;;;;;;29.80;61.10;;;;;;5051723;28;19912;-58
2022/06/18 09:43:14;;;;;;;;;;;29.80;61.20;;;;;;5050077;28;19948;-58
2022/06/18 09:45:43;;;;;;;;;;;29.90;60.70;;;;;;5050149;28;19912;-58
2022/06/18 09:48:09;;;;;;;;;;;29.90;60.20;;;;;;5053042;28;19924;-58
2022/06/18 09:50:55;;;;;;;;;;;29.90;60.00;;;;;;5050516;28;19920;-58
2022/06/18 09:53:23;;;;;;;;;;;29.90;59.60;;;;;;5052210;28;19913;-60
2022/06/18 09:55:53;;;;;;;;;;;29.90;59.70;;;;;;5051739;28;20007;-60
2022/06/18 09:58:24;;;;;;;;;;;29.90;59.20;;;;;;5050301;28;19919;-56
2022/06/18 10:00:51;;;;;;;;;;;29.90;58.10;;;;;;5049405;28;20012;-58
2022/06/18 10:08:53;;;;;;;;;;;30.10;58.50;;;;;;4988416;28;20005;-60
2022/06/18 10:11:21;;;;;;;;;;;30.10;57.90;;;;;;4987551;28;20005;-59
2022/06/18 10:13:57;;;;;;;;;;;30.20;57.60;;;;;;4988104;28;19965;-60
2022/06/18 10:16:42;;;;;;;;;;;30.30;56.60;;;;;;4987151;28;19924;-59
2022/06/18 10:19:17;;;;;;;;;;;30.40;57.60;;;;;;4988358;28;20321;-59
2022/06/18 10:21:50;;;;;;;;;;;30.40;56.10;;;;;;4984476;28;20008;-59
2022/06/18 10:24:15;;;;;;;;;;;30.60;54.20;;;;;;4990173;28;19917;-61
2022/06/18 10:26:41;;;;;;;;;;;30.70;55.90;;;;;;4987352;28;19918;-57
2022/06/18 10:29:11;;;;;;;;;;;30.70;55.00;;;;;;4989728;28;19966;-60
2022/06/18 10:31:40;;;;;;;;;;;30.90;55.10;;;;;;4987315;28;20455;-60
2022/06/18 10:34:31;;;;;;;;;;;31.00;54.90;;;;;;4989499;28;19918;-61
2022/06/18 10:37:02;;;;;;;;;;;31.10;54.90;;;;;;4928887;29;20346;-59
2022/06/18 10:39:34;;;;;;;;;;;31.20;55.00;;;;;;4928483;29;19922;-60
2022/06/18 10:41:59;;;;;;;;;;;31.30;53.80;;;;;;4928242;29;19915;-60
2022/06/18 10:44:28;;;;;;;;;;;31.40;53.90;;;;;;4944154;29;19914;-59
2022/06/18 10:47:19;;;;;;;;;;;31.40;54.10;;;;;;4945086;29;20009;-59
2022/06/18 10:49:46;;;;;;;;;;;31.50;54.30;;;;;;4943127;28;19997;-59
2022/06/18 10:52:20;;;;;;;;;;;31.50;53.20;;;;;;4943076;29;19961;-59
2022/06/18 10:54:46;;;;;;;;;;;31.50;53.30;;;;;;4945123;29;19918;-59
2022/06/18 10:57:21;;;;;;;;;;;31.50;52.00;;;;;;4945702;29;20000;-59
2022/06/18 10:59:46;;;;;;;;;;;31.50;52.80;;;;;;4923274;29;19954;-59
2022/06/18 11:02:20;;;;;;;;;;;31.60;52.40;;;;;;4945250;28;19980;-59
2022/06/18 11:04:56;;;;;;;;;;;31.60;52.50;;;;;;4946721;29;19919;-58
2022/06/18 11:07:23;;;;;;;;;;;31.60;53.10;;;;;;4944050;29;19970;-59
2022/06/18 11:09:53;;;;;;;;;;;31.70;52.80;;;;;;4945013;29;20398;-59
2022/06/18 11:12:21;;;;;;;;;;;31.70;52.30;;;;;;4942771;29;19942;-58
2022/06/18 11:14:46;;;;;;;;;;;31.70;52.00;;;;;;5038708;28;19927;-60
2022/06/18 11:17:25;;;;;;;;;;;31.60;51.80;;;;;;5048408;28;19917;-58
2022/06/18 11:19:50;;;;;;;;;;;31.60;52.30;;;;;;5049928;28;19914;-60
2022/06/18 11:22:35;;;;;;;;;;;31.60;52.40;;;;;;5048017;28;19921;-61
2022/06/18 11:25:02;;;;;;;;;;;31.60;51.80;;;;;;5047679;28;19999;-61
2022/06/18 11:27:29;;;;;;;;;;;31.70;52.30;;;;;;5047709;28;19921;-60
2022/06/18 11:29:55;;;;;;;;;;;31.70;52.20;;;;;;5047008;28;19935;-60
2022/06/18 11:32:46;;;;;;;;;;;31.80;51.70;;;;;;5048273;28;20398;-61
2022/06/18 11:35:19;;;;;;;;;;;31.90;51.30;;;;;;5044029;28;19923;-61
2022/06/18 11:37:56;;;;;;;;;;;32.10;51.30;;;;;;5046810;28;20295;-60
2022/06/18 11:40:22;;;;;;;;;;;32.10;51.30;;;;;;5046499;28;20457;-60
2022/06/18 11:42:51;;;;;;;;;;;32.10;51.00;;;;;;5046223;28;19983;-59
2022/06/18 11:45:25;;;;;;;;;;;32.10;49.70;;;;;;5046999;28;20371;-59
2022/06/18 11:48:09;;;;;;;;;;;32.10;50.40;;;;;;5047204;28;19928;-59
2022/06/18 11:50:40;;;;;;;;;;;32.10;48.30;;;;;;5046395;28;20287;-59
2022/06/18 11:53:14;;;;;;;;;;;32.10;49.30;;;;;;5048061;28;20640;-60
2022/06/18 11:55:43;;;;;;;;;;;32.20;49.30;;;;;;5047405;28;19921;-58
2022/06/18 11:58:17;;;;;;;;;;;32.20;49.80;;;;;;5046879;28;19917;-60
2022/06/18 12:00:52;;;;;;;;;;;32.30;49.30;;;;;;5047710;28;19932;-59
2022/06/18 12:03:37;;;;;;;;;;;32.40;48.80;;;;;;5046204;28;19925;-58
2022/06/18 12:06:15;;;;;;;;;;;32.50;49.30;;;;;;5047690;28;19913;-58
2022/06/18 12:08:41;;;;;;;;;;;32.60;49.00;;;;;;5047150;28;19927;-58
2022/06/18 12:11:25;;;;;;;;;;;32.60;49.10;;;;;;5047454;28;20446;-59
2022/06/18 12:13:55;;;;;;;;;;;32.60;49.00;;;;;;5047220;28;19920;-58
2022/06/18 12:16:26;;;;;;;;;;;32.70;49.10;;;;;;5046935;28;19918;-58
2022/06/18 12:18:54;;;;;;;;;;;32.70;49.00;;;;;;5044559;28;19955;-59
2022/06/18 12:21:38;;;;;;;;;;;32.80;49.20;;;;;;5046270;28;19912;-59
2022/06/18 12:24:19;;;;;;;;;;;32.90;49.60;;;;;;5047169;28;19917;-58
2022/06/18 12:26:56;;;;;;;;;;;32.90;49.80;;;;;;5045779;28;19920;-58
2022/06/18 12:29:30;;;;;;;;;;;32.90;49.80;;;;;;5047140;28;19921;-58
2022/06/18 12:31:59;;;;;;;;;;;32.90;50.00;;;;;;5048230;28;19956;-58
2022/06/18 12:34:27;;;;;;;;;;;33.00;50.10;;;;;;5046886;28;19917;-58
2022/06/18 12:36:59;;;;;;;;;;;33.00;50.10;;;;;;5046377;28;19975;-59
2022/06/18 12:39:32;;;;;;;;;;;32.90;50.40;;;;;;5046535;28;19924;-57
2022/06/18 12:42:09;;;;;;;;;;;33.00;50.50;;;;;;5046878;28;19938;-57
2022/06/18 12:44:38;;;;;;;;;;;33.10;50.40;;;;;;5046776;28;19999;-59
2022/06/18 12:47:08;;;;;;;;;;;33.10;50.30;;;;;;5047742;28;19936;-58
2022/06/18 12:49:52;;;;;;;;;;;33.10;50.40;;;;;;5029815;28;19919;-59
2022/06/18 12:52:33;;;;;;;;;;;33.10;51.20;;;;;;5047120;28;19952;-58
2022/06/18 12:55:18;;;;;;;;;;;33.20;50.20;;;;;;5046346;28;19912;-59
2022/06/18 12:57:53;;;;;;;;;;;33.20;50.10;;;;;;5045645;28;19925;-59
2022/06/18 13:00:21;;;;;;;;;;;33.30;50.40;;;;;;5049972;28;19920;-58
2022/06/18 13:03:01;;;;;;;;;;;33.30;50.60;;;;;;5053412;28;20431;-58
2022/06/18 13:05:41;;;;;;;;;;;33.20;50.60;;;;;;5050850;28;19959;-58
2022/06/18 13:08:06;;;;;;;;;;;33.30;50.90;;;;;;5052013;28;19935;-57
2022/06/18 13:10:36;;;;;;;;;;;33.30;50.00;;;;;;5050927;28;19920;-58
2022/06/18 13:13:02;;;;;;;;;;;33.40;50.60;;;;;;5051005;28;19917;-58
2022/06/18 13:15:40;;;;;;;;;;;33.40;50.70;;;;;;5050571;28;19924;-60
2022/06/18 13:18:17;;;;;;;;;;;33.50;50.80;;;;;;5050034;28;20012;-57
2022/06/18 13:21:03;;;;;;;;;;;33.50;50.90;;;;;;5050912;28;19959;-58
2022/06/18 13:29:07;;;;;;;;;;;33.50;50.80;;;;;;5050123;28;19971;-58
2022/06/18 13:31:45;;;;;;;;;;;33.50;50.70;;;;;;5049518;28;19917;-57
2022/06/18 13:34:37;;;;;;;;;;;33.50;50.80;;;;;;5050514;28;20379;-58
2022/06/18 13:37:09;;;;;;;;;;;33.60;51.00;;;;;;5045532;28;19938;-58
2022/06/18 13:39:34;;;;;;;;;;;33.60;50.10;;;;;;5050717;28;19917;-58
2022/06/18 13:42:06;;;;;;;;;;;33.60;50.40;;;;;;5051112;28;19913;-57
2022/06/18 13:45:04;;;;;;;;;;;33.60;50.30;;;;;;5048715;28;19920;-57
2022/06/18 13:47:37;;;;;;;;;;;33.70;49.30;;;;;;4968551;28;19922;-57
2022/06/18 13:50:19;;;;;;;;;;;33.80;49.50;;;;;;4966231;28;20552;-59
2022/06/18 13:52:45;;;;;;;;;;;33.90;49.50;;;;;;4965889;28;19918;-59
2022/06/18 13:55:13;;;;;;;;;;;33.90;49.60;;;;;;4968532;28;19949;-59
2022/06/18 13:57:41;;;;;;;;;;;33.90;49.70;;;;;;4970058;28;19915;-59
2022/06/18 14:00:11;;;;;;;;;;;33.90;49.30;;;;;;4969275;28;19929;-58
2022/06/18 14:02:39;;;;;;;;;;;34.00;49.30;;;;;;4968911;28;19968;-58
2022/06/18 14:05:16;;;;;;;;;;;34.10;48.60;;;;;;4971905;28;20005;-58
2022/06/18 14:07:44;;;;;;;;;;;34.20;48.90;;;;;;4967938;28;20112;-55
2022/06/18 14:10:14;;;;;;;;;;;34.20;49.00;;;;;;4967947;28;19936;-58
2022/06/18 14:12:41;;;;;;;;;;;34.10;48.60;;;;;;4969163;28;19922;-59
2022/06/18 14:15:26;;;;;;;;;;;34.10;49.00;;;;;;4967682;28;19923;-60
2022/06/18 14:17:53;;;;;;;;;;;34.20;49.40;;;;;;4972185;28;20004;-60
2022/06/18 14:20:30;;;;;;;;;;;34.30;49.30;;;;;;4968521;28;20388;-60
2022/06/18 14:22:57;;;;;;;;;;;34.30;49.00;;;;;;5003033;28;19916;-60
2022/06/18 14:25:22;;;;;;;;;;;34.30;48.90;;;;;;5049034;28;19916;-60
2022/06/18 14:27:48;;;;;;;;;;;34.40;49.20;;;;;;5050353;28;19935;-61
2022/06/18 14:30:18;;;;;;;;;;;34.30;48.70;;;;;;5050514;28;19924;-59
2022/06/18 14:32:50;;;;;;;;;;;34.40;48.80;;;;;;5051394;28;20023;-62
2022/06/18 14:35:16;;;;;;;;;;;34.40;48.00;;;;;;5049555;28;19913;-61
2022/06/18 14:37:43;;;;;;;;;;;34.40;48.20;;;;;;5031228;28;19936;-61
2022/06/18 14:40:11;;;;;;;;;;;34.40;48.60;;;;;;5048295;28;20421;-60
2022/06/18 14:42:49;;;;;;;;;;;34.40;48.80;;;;;;5048998;28;20423;-61
2022/06/18 14:45:15;;;;;;;;;;;34.40;48.40;;;;;;5050111;28;19920;-61
2022/06/18 14:50:59;;;;;;;;;;;34.50;48.00;;;;;;5034129;28;20476;-61
2022/06/18 14:53:28;;;;;;;;;;;34.60;47.90;;;;;;5049050;28;19939;-61
2022/06/18 14:55:59;;;;;;;;;;;34.70;48.10;;;;;;5049385;28;19919;-62
2022/06/18 14:58:27;;;;;;;;;;;34.70;47.70;;;;;;5047951;28;19917;-62
2022/06/18 15:01:08;;;;;;;;;;;34.80;47.70;;;;;;5048688;28;20004;-62